Time;durP1;ratioP1;P1;durP2;ratioP2;P2;SDS_P1;SDS_P2;PMS_P1;PMS_P2;Temp;Humidity;BMP_temperature;BMP_pressure;BME280_temperature;BME280_humidity;BME280_pressure;Samples;Min_cycle;Max_cycle;Signal;HPM_P1;HPM_P2
2023/09/30 00:01:01;;;;;;;12.35;9.60;;;20.00;74.20;;;;;;5053802;28;20036;-59
2023/09/30 00:03:27;;;;;;;12.48;9.80;;;20.00;74.50;;;;;;5053827;28;20029;-59
2023/09/30 00:05:54;;;;;;;13.15;9.15;;;20.00;74.60;;;;;;5053824;28;20407;-59
2023/09/30 00:08:19;;;;;;;13.32;10.10;;;20.10;74.80;;;;;;5053492;28;20028;-59
2023/09/30 00:10:46;;;;;;;10.63;9.52;;;20.10;75.00;;;;;;5053069;28;20103;-59
2023/09/30 00:13:12;;;;;;;11.65;8.88;;;20.10;75.20;;;;;;5053573;28;20029;-59
2023/09/30 00:15:38;;;;;;;11.65;9.27;;;20.10;74.90;;;;;;5053300;28;20017;-59
2023/09/30 00:18:05;;;;;;;10.80;9.50;;;20.10;74.90;;;;;;5053331;28;20079;-59
2023/09/30 00:20:31;;;;;;;14.85;10.27;;;20.10;74.80;;;;;;5053472;28;20031;-59
2023/09/30 00:22:56;;;;;;;11.73;9.75;;;20.00;74.70;;;;;;5053499;28;20033;-58
2023/09/30 00:25:22;;;;;;;12.80;9.50;;;20.00;75.30;;;;;;5053055;28;20098;-59
2023/09/30 00:27:48;;;;;;;12.10;10.32;;;20.00;75.10;;;;;;5053088;28;20365;-59
2023/09/30 00:30:14;;;;;;;13.13;10.40;;;19.90;75.40;;;;;;5053282;28;20033;-59
2023/09/30 00:32:39;;;;;;;12.25;10.05;;;19.90;75.20;;;;;;5052811;28;20075;-58
2023/09/30 00:35:10;;;;;;;14.55;9.63;;;19.90;75.30;;;;;;5052874;28;20060;-59
2023/09/30 00:37:40;;;;;;;12.35;9.90;;;19.80;75.40;;;;;;5053244;28;20427;-59
2023/09/30 00:40:11;;;;;;;13.60;9.70;;;19.80;75.20;;;;;;5053049;28;20029;-59
2023/09/30 00:42:38;;;;;;;13.27;9.98;;;19.70;75.20;;;;;;5053075;28;20040;-59
2023/09/30 00:45:04;;;;;;;12.20;9.75;;;19.70;75.20;;;;;;5052757;28;20032;-59
2023/09/30 00:47:31;;;;;;;12.60;10.40;;;19.60;75.20;;;;;;5052849;28;20025;-59
2023/09/30 00:49:57;;;;;;;13.73;9.63;;;19.50;75.50;;;;;;5052512;28;20472;-59
2023/09/30 00:52:23;;;;;;;12.90;9.90;;;19.40;75.70;;;;;;5052774;28;20086;-59
2023/09/30 00:54:50;;;;;;;12.63;10.43;;;19.30;76.10;;;;;;5052483;28;20040;-59
2023/09/30 00:57:19;;;;;;;17.38;11.02;;;19.30;76.60;;;;;;5052639;28;20029;-59
2023/09/30 00:59:45;;;;;;;12.32;10.73;;;19.30;77.40;;;;;;5052373;28;20021;-59
2023/09/30 01:02:11;;;;;;;14.50;10.98;;;19.30;77.80;;;;;;5051125;28;20071;-59
2023/09/30 01:04:38;;;;;;;11.85;10.55;;;19.30;77.90;;;;;;5052242;28;20047;-59
2023/09/30 01:07:05;;;;;;;12.55;10.40;;;19.40;77.90;;;;;;5052467;28;20392;-58
2023/09/30 01:09:31;;;;;;;13.40;11.20;;;19.30;77.10;;;;;;5052271;28;20061;-59
2023/09/30 01:11:56;;;;;;;11.57;10.38;;;19.30;76.90;;;;;;5052027;28;20029;-59
2023/09/30 01:14:30;;;;;;;13.52;10.57;;;19.20;76.90;;;;;;5052163;28;20029;-59
2023/09/30 01:16:56;;;;;;;13.88;10.30;;;19.20;76.90;;;;;;5052051;28;20021;-59
2023/09/30 01:19:25;;;;;;;11.93;10.43;;;19.10;77.20;;;;;;5052297;28;20025;-59
2023/09/30 01:21:58;;;;;;;11.88;9.93;;;19.10;77.70;;;;;;5052054;28;20028;-59
2023/09/30 01:24:25;;;;;;;12.63;10.80;;;19.10;78.50;;;;;;5052278;28;20032;-59
2023/09/30 01:26:51;;;;;;;14.32;9.55;;;19.10;79.00;;;;;;5052309;28;20029;-59
2023/09/30 01:29:17;;;;;;;11.82;10.60;;;19.20;79.40;;;;;;5051923;28;20536;-59
2023/09/30 01:31:42;;;;;;;13.68;9.90;;;19.20;79.20;;;;;;5051966;28;20099;-59
2023/09/30 01:34:08;;;;;;;13.90;10.82;;;19.20;79.20;;;;;;5051835;28;20096;-59
2023/09/30 01:36:34;;;;;;;12.15;10.65;;;19.30;79.00;;;;;;5051739;28;20111;-56
2023/09/30 01:39:01;;;;;;;14.88;10.48;;;19.30;78.70;;;;;;5051626;28;20021;-60
2023/09/30 01:41:27;;;;;;;14.23;10.63;;;19.20;78.50;;;;;;5051873;28;20103;-59
2023/09/30 01:43:53;;;;;;;11.68;10.48;;;19.20;78.50;;;;;;5051570;28;20139;-59
2023/09/30 01:46:19;;;;;;;14.07;10.77;;;19.20;78.50;;;;;;5051784;28;20033;-59
2023/09/30 01:48:44;;;;;;;12.68;10.88;;;19.20;78.40;;;;;;5051811;28;20482;-59
2023/09/30 01:51:10;;;;;;;15.07;10.27;;;19.20;78.40;;;;;;5051384;28;20032;-58
2023/09/30 01:53:36;;;;;;;12.63;10.82;;;19.10;78.30;;;;;;5051654;28;20469;-59
2023/09/30 01:56:02;;;;;;;12.32;9.63;;;19.10;78.50;;;;;;5051353;28;20028;-59
2023/09/30 01:58:28;;;;;;;12.48;10.57;;;19.10;78.70;;;;;;5051172;28;20025;-59
2023/09/30 02:00:54;;;;;;;11.77;10.40;;;19.10;78.80;;;;;;5051598;28;20028;-59
2023/09/30 02:03:19;;;;;;;15.13;10.73;;;19.10;78.60;;;;;;5051336;28;20057;-59
2023/09/30 02:05:46;;;;;;;18.85;11.07;;;19.10;78.30;;;;;;5051288;28;20501;-59
2023/09/30 02:08:13;;;;;;;14.70;11.23;;;19.10;78.80;;;;;;5051281;28;20029;-59
2023/09/30 02:10:40;;;;;;;14.30;10.88;;;19.10;78.10;;;;;;5051059;28;20045;-59
2023/09/30 02:13:06;;;;;;;21.65;11.85;;;19.00;78.20;;;;;;5051483;28;20029;-59
2023/09/30 02:15:33;;;;;;;15.48;10.95;;;19.00;78.20;;;;;;5051274;28;20040;-57
2023/09/30 02:18:00;;;;;;;15.25;11.30;;;19.00;78.40;;;;;;5051323;28;20057;-59
2023/09/30 02:20:29;;;;;;;12.23;10.63;;;18.90;78.30;;;;;;5051501;28;20052;-59
2023/09/30 02:22:55;;;;;;;16.67;10.77;;;18.80;78.50;;;;;;5051401;28;20038;-59
2023/09/30 02:25:21;;;;;;;14.15;11.32;;;18.80;78.90;;;;;;5051337;28;20083;-59
2023/09/30 02:27:49;;;;;;;13.65;12.13;;;18.80;79.40;;;;;;5050998;28;20037;-58
2023/09/30 02:30:16;;;;;;;14.27;10.82;;;18.80;79.60;;;;;;5051292;28;20033;-57
2023/09/30 02:32:42;;;;;;;13.95;11.38;;;18.80;79.50;;;;;;5051139;28;20017;-59
2023/09/30 02:35:10;;;;;;;14.45;12.00;;;18.80;80.00;;;;;;5050939;28;20021;-57
2023/09/30 02:37:36;;;;;;;16.67;12.02;;;18.70;80.70;;;;;;5050978;28;20024;-59
2023/09/30 02:40:05;;;;;;;14.55;12.18;;;18.70;81.50;;;;;;5051047;28;20017;-59
2023/09/30 02:42:31;;;;;;;14.52;11.77;;;18.70;82.00;;;;;;5050896;28;20013;-59
2023/09/30 02:44:59;;;;;;;15.40;13.55;;;18.70;82.20;;;;;;5051210;28;20074;-59
2023/09/30 02:47:24;;;;;;;13.95;12.55;;;18.80;82.50;;;;;;5051304;28;20036;-59
2023/09/30 02:49:50;;;;;;;14.82;13.27;;;18.70;82.50;;;;;;5050855;28;20021;-59
2023/09/30 02:52:16;;;;;;;15.90;12.93;;;18.70;82.30;;;;;;5051190;28;20020;-58
2023/09/30 02:54:42;;;;;;;16.42;13.80;;;18.70;82.40;;;;;;5051139;28;20108;-59
2023/09/30 02:57:09;;;;;;;15.02;13.27;;;18.70;82.50;;;;;;5050772;28;20096;-59
2023/09/30 02:59:36;;;;;;;14.70;13.02;;;18.70;82.20;;;;;;5051324;28;20457;-59
2023/09/30 03:02:03;;;;;;;16.58;14.43;;;18.70;82.20;;;;;;5050968;28;20396;-59
2023/09/30 03:04:28;;;;;;;16.60;14.07;;;18.70;82.20;;;;;;5050897;28;20108;-59
2023/09/30 03:06:56;;;;;;;17.25;14.73;;;18.70;82.00;;;;;;5050698;28;20096;-59
2023/09/30 03:09:22;;;;;;;16.50;14.60;;;18.60;82.00;;;;;;5052171;28;20068;-59
2023/09/30 03:11:48;;;;;;;17.35;14.82;;;18.60;82.00;;;;;;5054360;28;20027;-59
2023/09/30 03:14:13;;;;;;;16.15;13.90;;;18.60;82.10;;;;;;5054646;28;20100;-59
2023/09/30 03:16:41;;;;;;;17.27;14.23;;;18.50;82.00;;;;;;5054391;28;20025;-59
2023/09/30 03:19:08;;;;;;;19.88;15.18;;;18.50;82.10;;;;;;5054558;28;20044;-59
2023/09/30 03:21:35;;;;;;;18.70;14.68;;;18.50;82.10;;;;;;5054490;28;20029;-58
2023/09/30 03:24:02;;;;;;;17.85;15.13;;;18.40;82.20;;;;;;5054481;28;20060;-59
2023/09/30 03:26:29;;;;;;;17.90;14.63;;;18.40;82.30;;;;;;5054715;28;20032;-59
2023/09/30 03:28:55;;;;;;;17.98;15.55;;;18.40;82.20;;;;;;5054380;28;20112;-59
2023/09/30 03:31:22;;;;;;;19.58;15.40;;;18.40;82.30;;;;;;5052589;28;20117;-59
2023/09/30 03:33:49;;;;;;;18.48;15.77;;;18.40;82.40;;;;;;5054311;28;20100;-59
2023/09/30 03:36:15;;;;;;;19.35;16.50;;;18.40;82.50;;;;;;5053972;28;20028;-59
2023/09/30 03:38:41;;;;;;;21.42;16.10;;;18.40;82.40;;;;;;5054263;28;20480;-59
2023/09/30 03:41:08;;;;;;;19.65;16.10;;;18.40;82.20;;;;;;5053863;28;20025;-58
2023/09/30 03:43:36;;;;;;;18.80;15.38;;;18.40;82.20;;;;;;5053864;28;20078;-59
2023/09/30 03:46:02;;;;;;;20.17;16.38;;;18.30;82.00;;;;;;5053807;28;20130;-55
2023/09/30 03:48:28;;;;;;;19.23;17.23;;;18.30;82.10;;;;;;5054107;28;20179;-59
2023/09/30 03:50:54;;;;;;;21.10;16.90;;;18.30;82.00;;;;;;5053695;28;20029;-59
2023/09/30 03:53:19;;;;;;;18.60;15.73;;;18.30;81.90;;;;;;5054290;28;20381;-59
2023/09/30 03:55:45;;;;;;;18.15;15.60;;;18.30;81.70;;;;;;5053792;28;20029;-59
2023/09/30 03:58:12;;;;;;;18.83;14.77;;;18.20;81.20;;;;;;5053774;28;20028;-59
2023/09/30 04:00:39;;;;;;;17.77;15.88;;;18.20;81.20;;;;;;5053756;28;20392;-59
2023/09/30 04:03:05;;;;;;;20.50;16.45;;;18.20;81.30;;;;;;5053767;28;20039;-59
2023/09/30 04:05:36;;;;;;;22.48;17.15;;;18.20;81.70;;;;;;5053405;28;20029;-59
2023/09/30 04:08:02;;;;;;;21.10;17.10;;;18.20;81.80;;;;;;5053748;28;20033;-59
2023/09/30 04:10:29;;;;;;;19.67;17.23;;;18.10;81.90;;;;;;5053203;28;20068;-59
2023/09/30 04:12:55;;;;;;;20.98;16.60;;;18.10;81.90;;;;;;5053269;28;20108;-58
2023/09/30 04:15:21;;;;;;;19.90;16.95;;;18.20;81.90;;;;;;5053548;28;20112;-59
2023/09/30 04:17:48;;;;;;;20.55;17.17;;;18.20;82.00;;;;;;5053774;28;20096;-59
2023/09/30 04:20:21;;;;;;;19.33;17.23;;;18.10;82.00;;;;;;5052902;28;20108;-59
2023/09/30 04:22:48;;;;;;;20.30;17.65;;;18.20;82.00;;;;;;5053459;28;20033;-59
2023/09/30 04:25:17;;;;;;;23.33;17.63;;;18.20;82.00;;;;;;5053409;28;20036;-59
2023/09/30 04:27:45;;;;;;;20.20;17.48;;;18.20;82.00;;;;;;5052969;28;20033;-59
2023/09/30 04:30:11;;;;;;;20.92;16.55;;;18.20;82.00;;;;;;5053066;28;20051;-59
2023/09/30 04:32:39;;;;;;;20.20;18.05;;;18.20;81.90;;;;;;5053253;28;20103;-59
2023/09/30 04:35:05;;;;;;;23.10;18.67;;;18.20;81.80;;;;;;5052981;28;20025;-59
2023/09/30 04:37:31;;;;;;;21.90;17.88;;;18.20;81.70;;;;;;5052694;28;20028;-59
2023/09/30 04:39:58;;;;;;;20.45;17.88;;;18.30;81.80;;;;;;5053505;28;20029;-59
2023/09/30 04:42:25;;;;;;;22.17;16.92;;;18.30;81.60;;;;;;5052767;28;20036;-59
2023/09/30 04:44:52;;;;;;;25.27;17.73;;;18.30;81.60;;;;;;5052892;28;20036;-59
2023/09/30 04:47:18;;;;;;;22.98;18.15;;;18.30;81.50;;;;;;5052691;28;20029;-59
2023/09/30 04:49:44;;;;;;;21.15;17.75;;;18.30;81.50;;;;;;5052803;28;20047;-59
2023/09/30 04:52:10;;;;;;;23.55;18.33;;;18.30;81.40;;;;;;5052487;28;20115;-59
2023/09/30 04:54:35;;;;;;;21.77;19.30;;;18.30;81.30;;;;;;5052749;28;20036;-59
2023/09/30 04:57:02;;;;;;;20.67;17.42;;;18.30;81.30;;;;;;5051101;28;20170;-58
2023/09/30 04:59:29;;;;;;;23.58;18.92;;;18.30;81.10;;;;;;5052406;28;20029;-59
2023/09/30 05:01:56;;;;;;;21.75;18.08;;;18.30;81.10;;;;;;5052505;28;20293;-59
2023/09/30 05:04:23;;;;;;;24.40;19.00;;;18.40;81.10;;;;;;5052273;28;20035;-58
2023/09/30 05:06:50;;;;;;;22.92;18.05;;;18.40;81.20;;;;;;5052292;28;20038;-59
2023/09/30 05:09:15;;;;;;;24.00;17.95;;;18.40;81.20;;;;;;5052180;28;20420;-59
2023/09/30 05:11:41;;;;;;;20.83;18.15;;;18.40;81.30;;;;;;5052090;28;20074;-59
2023/09/30 05:14:07;;;;;;;21.95;18.40;;;18.40;81.30;;;;;;5052414;28;20079;-59
2023/09/30 05:16:32;;;;;;;20.67;18.38;;;18.40;81.30;;;;;;5052125;28;20025;-57
2023/09/30 05:18:58;;;;;;;23.73;19.25;;;18.50;81.50;;;;;;5052098;28;20063;-59
2023/09/30 05:21:24;;;;;;;21.30;18.98;;;18.50;82.20;;;;;;5052271;28;20025;-59
2023/09/30 05:23:50;;;;;;;25.33;18.52;;;18.50;81.70;;;;;;5051881;28;20036;-59
2023/09/30 05:26:16;;;;;;;24.80;18.40;;;18.60;81.80;;;;;;5051831;28;20037;-59
2023/09/30 05:28:42;;;;;;;20.52;17.50;;;18.60;81.90;;;;;;5052156;28;20548;-59
2023/09/30 05:31:08;;;;;;;20.70;17.67;;;18.60;82.10;;;;;;5051445;28;20029;-59
2023/09/30 05:33:34;;;;;;;20.35;18.15;;;18.70;82.30;;;;;;5051631;28;20385;-59
2023/09/30 05:36:02;;;;;;;21.17;18.13;;;18.70;82.30;;;;;;5051787;28;20452;-59
2023/09/30 05:38:29;;;;;;;21.10;17.10;;;18.80;82.50;;;;;;5052071;28;20495;-59
2023/09/30 05:40:55;;;;;;;24.02;18.88;;;18.80;82.60;;;;;;5051893;28;20037;-59
2023/09/30 05:43:21;;;;;;;21.80;17.77;;;18.80;82.40;;;;;;5051887;28;20037;-59
2023/09/30 05:45:54;;;;;;;23.30;18.63;;;18.90;82.50;;;;;;5051461;28;20028;-59
2023/09/30 05:48:20;;;;;;;21.77;18.35;;;18.90;82.50;;;;;;5051760;28;20033;-59
2023/09/30 05:50:47;;;;;;;22.58;18.63;;;18.90;82.40;;;;;;5051580;28;20032;-56
2023/09/30 05:53:13;;;;;;;22.75;17.83;;;19.00;82.40;;;;;;5051527;28;20063;-59
2023/09/30 05:55:42;;;;;;;20.98;16.65;;;19.10;82.20;;;;;;5051706;28;20028;-59
2023/09/30 05:58:09;;;;;;;21.60;17.45;;;19.20;81.90;;;;;;5051361;28;20074;-59
2023/09/30 06:00:35;;;;;;;20.60;17.30;;;19.40;82.00;;;;;;5051178;28;20029;-59
2023/09/30 06:03:01;;;;;;;22.15;17.17;;;19.60;80.90;;;;;;5051220;28;20414;-59
2023/09/30 06:05:30;;;;;;;19.08;16.48;;;19.70;80.40;;;;;;5051428;28;20029;-59
2023/09/30 06:07:56;;;;;;;17.60;15.77;;;19.80;80.20;;;;;;5051492;28;20028;-59
2023/09/30 06:10:22;;;;;;;20.17;17.20;;;19.90;80.40;;;;;;5050509;28;20056;-58
2023/09/30 06:12:49;;;;;;;20.27;16.75;;;19.90;79.40;;;;;;5051088;28;20029;-59
2023/09/30 06:15:15;;;;;;;20.75;16.67;;;20.00;79.00;;;;;;5051227;28;20024;-59
2023/09/30 06:17:42;;;;;;;17.88;15.82;;;20.00;79.00;;;;;;5051411;28;20060;-59
2023/09/30 06:20:15;;;;;;;19.52;16.30;;;20.00;78.70;;;;;;5051351;28;20100;-59
2023/09/30 06:22:45;;;;;;;18.83;16.70;;;20.00;78.80;;;;;;5051082;28;20021;-59
2023/09/30 06:25:16;;;;;;;20.83;15.75;;;20.00;78.80;;;;;;5051350;28;20021;-59
2023/09/30 06:27:42;;;;;;;19.73;17.13;;;19.90;78.50;;;;;;5051380;28;20020;-59
2023/09/30 06:30:09;;;;;;;20.38;16.60;;;19.90;78.70;;;;;;5051346;28;20079;-59
2023/09/30 06:32:35;;;;;;;22.60;17.67;;;19.90;78.70;;;;;;5051198;28;20025;-59
2023/09/30 06:35:06;;;;;;;17.67;15.77;;;19.90;78.70;;;;;;5051184;28;20488;-59
2023/09/30 06:37:32;;;;;;;22.45;16.00;;;20.00;78.80;;;;;;5051267;28;20029;-57
2023/09/30 06:39:58;;;;;;;19.15;16.02;;;20.00;78.90;;;;;;5050940;28;20088;-59
2023/09/30 06:42:24;;;;;;;22.23;15.68;;;20.00;79.00;;;;;;5051355;28;20029;-59
2023/09/30 06:44:50;;;;;;;17.95;15.95;;;20.00;78.80;;;;;;5054977;28;20029;-59
2023/09/30 06:47:16;;;;;;;20.92;16.35;;;20.10;78.70;;;;;;5054887;28;20476;-59
2023/09/30 06:49:42;;;;;;;20.95;16.55;;;20.10;78.60;;;;;;5055098;28;20025;-59
2023/09/30 06:52:07;;;;;;;18.23;15.63;;;20.10;78.70;;;;;;5055064;28;20025;-59
2023/09/30 06:54:33;;;;;;;19.85;16.27;;;20.20;79.10;;;;;;5054755;28;20078;-59
2023/09/30 06:56:59;;;;;;;20.92;15.85;;;20.20;79.00;;;;;;5054489;28;20024;-59
2023/09/30 06:59:26;;;;;;;19.50;16.23;;;20.20;79.70;;;;;;5054818;28;20029;-59
2023/09/30 07:01:51;;;;;;;19.95;16.42;;;20.20;79.10;;;;;;5054361;28;20514;-59
2023/09/30 07:04:17;;;;;;;20.33;16.88;;;20.30;79.20;;;;;;5054045;28;20103;-59
2023/09/30 07:06:43;;;;;;;19.98;16.45;;;20.30;79.20;;;;;;5054448;28;20033;-56
2023/09/30 07:09:10;;;;;;;20.25;16.15;;;20.40;79.40;;;;;;5054188;28;20045;-59
2023/09/30 07:11:36;;;;;;;18.05;16.17;;;20.40;79.50;;;;;;5054345;28;20114;-59
2023/09/30 07:14:02;;;;;;;18.65;16.25;;;20.40;79.30;;;;;;5054097;28;20495;-60
2023/09/30 07:16:27;;;;;;;18.60;16.05;;;20.40;79.00;;;;;;5054520;28;20104;-60
2023/09/30 07:18:53;;;;;;;21.55;17.20;;;20.50;79.00;;;;;;5054542;28;20358;-59
2023/09/30 07:21:19;;;;;;;23.85;16.83;;;20.50;78.80;;;;;;5053437;28;20448;-58
2023/09/30 07:23:45;;;;;;;18.67;16.52;;;20.50;78.80;;;;;;5052426;28;20474;-59
2023/09/30 07:26:10;;;;;;;19.20;16.63;;;20.60;79.00;;;;;;5052760;28;20523;-59
2023/09/30 07:28:36;;;;;;;20.48;16.92;;;20.50;78.90;;;;;;5052571;28;20040;-59
2023/09/30 07:31:02;;;;;;;19.75;17.17;;;20.50;79.10;;;;;;5052580;28;20029;-60
2023/09/30 07:33:29;;;;;;;22.23;17.58;;;20.60;79.20;;;;;;5053066;28;20070;-58
2023/09/30 07:35:55;;;;;;;19.48;16.42;;;20.60;79.20;;;;;;5053596;28;20045;-59
2023/09/30 07:38:22;;;;;;;18.90;16.73;;;20.60;79.20;;;;;;5054306;28;20495;-59
2023/09/30 07:40:48;;;;;;;19.92;17.67;;;20.70;79.40;;;;;;5054198;28;20550;-60
2023/09/30 07:43:14;;;;;;;22.10;18.10;;;20.70;79.60;;;;;;5054138;28;20033;-57
2023/09/30 07:45:40;;;;;;;21.65;17.92;;;20.70;79.60;;;;;;5053737;28;20564;-59
2023/09/30 07:48:09;;;;;;;22.13;17.85;;;20.80;79.40;;;;;;5053735;28;20028;-59
2023/09/30 07:50:35;;;;;;;20.77;17.30;;;20.80;79.60;;;;;;5053966;28;20052;-59
2023/09/30 07:53:01;;;;;;;19.85;16.83;;;20.80;79.60;;;;;;5053788;28;20061;-59
2023/09/30 07:55:26;;;;;;;20.92;16.58;;;20.90;79.70;;;;;;5052791;28;20389;-60
2023/09/30 07:57:52;;;;;;;21.63;16.48;;;20.90;79.70;;;;;;5054075;28;20056;-59
2023/09/30 08:00:21;;;;;;;19.27;16.98;;;20.90;79.90;;;;;;5053523;28;20029;-59
2023/09/30 08:02:46;;;;;;;19.40;17.13;;;21.00;79.90;;;;;;5053844;28;20032;-59
2023/09/30 08:05:12;;;;;;;18.98;16.13;;;21.00;80.00;;;;;;5053401;28;20029;-60
2023/09/30 08:07:38;;;;;;;19.23;16.92;;;21.00;80.10;;;;;;5053315;28;20032;-59
2023/09/30 08:10:05;;;;;;;18.55;16.65;;;21.10;80.00;;;;;;5053113;28;20516;-59
2023/09/30 08:12:30;;;;;;;20.55;15.90;;;21.10;79.90;;;;;;5053399;28;20085;-59
2023/09/30 08:14:56;;;;;;;20.67;16.20;;;21.10;79.80;;;;;;5053409;28;20038;-59
2023/09/30 08:17:21;;;;;;;17.55;15.23;;;21.10;80.00;;;;;;5053076;28;20027;-60
2023/09/30 08:19:47;;;;;;;17.58;15.77;;;21.20;80.20;;;;;;5052444;28;20044;-59
2023/09/30 08:22:14;;;;;;;16.95;15.15;;;21.30;80.10;;;;;;5051886;28;20033;-59
2023/09/30 08:24:39;;;;;;;18.73;16.42;;;21.30;80.70;;;;;;5053033;28;20025;-59
2023/09/30 08:27:06;;;;;;;19.27;16.55;;;21.30;80.10;;;;;;5053236;28;20032;-59
2023/09/30 08:29:36;;;;;;;20.25;17.02;;;21.40;80.10;;;;;;5053345;28;20108;-59
2023/09/30 08:32:02;;;;;;;20.70;17.77;;;21.40;80.10;;;;;;5053234;28;20095;-59
2023/09/30 08:34:28;;;;;;;21.20;17.95;;;21.40;80.00;;;;;;5053013;28;20083;-59
2023/09/30 08:36:54;;;;;;;20.65;17.98;;;21.40;79.90;;;;;;5052087;28;20028;-59
2023/09/30 08:39:20;;;;;;;21.90;17.60;;;21.40;79.70;;;;;;5051241;28;20029;-59
2023/09/30 08:41:46;;;;;;;21.00;18.45;;;21.50;79.60;;;;;;5050808;28;20392;-59
2023/09/30 08:44:12;;;;;;;21.10;18.17;;;21.50;79.50;;;;;;5051028;28;20036;-59
2023/09/30 08:46:40;;;;;;;19.98;17.90;;;21.50;79.50;;;;;;5051308;28;20099;-59
2023/09/30 08:49:06;;;;;;;22.60;18.17;;;21.50;79.30;;;;;;5050947;28;20029;-59
2023/09/30 08:51:33;;;;;;;19.80;17.02;;;21.50;79.40;;;;;;5050510;28;20025;-59
2023/09/30 08:54:01;;;;;;;25.77;17.75;;;21.50;79.30;;;;;;5052265;28;20021;-59
2023/09/30 08:56:28;;;;;;;18.77;16.80;;;21.50;79.20;;;;;;5052924;28;20028;-59
2023/09/30 08:58:59;;;;;;;19.05;17.00;;;21.50;79.20;;;;;;5052838;28;20044;-59
2023/09/30 09:01:28;;;;;;;18.45;16.17;;;21.60;79.30;;;;;;5052430;28;20029;-59
2023/09/30 09:03:55;;;;;;;19.77;15.90;;;21.50;79.30;;;;;;5052625;28;20104;-59
2023/09/30 09:06:22;;;;;;;17.85;15.23;;;21.50;79.30;;;;;;5052588;28;20426;-59
2023/09/30 09:08:48;;;;;;;23.40;16.85;;;21.50;79.40;;;;;;5052255;28;20104;-59
2023/09/30 09:11:14;;;;;;;18.00;16.05;;;21.50;79.30;;;;;;5052473;28;20032;-57
2023/09/30 09:13:49;;;;;;;21.08;16.65;;;21.60;79.30;;;;;;5052337;28;20505;-59
2023/09/30 09:16:15;;;;;;;20.08;15.82;;;21.60;79.10;;;;;;5052456;28;20017;-59
2023/09/30 09:18:41;;;;;;;20.42;15.90;;;21.60;79.30;;;;;;5052315;28;20013;-59
2023/09/30 09:21:10;;;;;;;18.30;16.17;;;21.60;79.30;;;;;;5052056;28;20029;-59
2023/09/30 09:23:46;;;;;;;22.42;16.85;;;21.60;79.40;;;;;;5052342;28;20028;-62
2023/09/30 09:26:27;;;;;;;18.77;16.77;;;21.60;79.40;;;;;;5052618;28;20052;-60
2023/09/30 09:29:06;;;;;;;18.33;16.38;;;21.60;79.30;;;;;;5052398;28;20112;-59
2023/09/30 09:31:36;;;;;;;20.67;16.95;;;21.60;79.70;;;;;;5052139;28;20032;-61
2023/09/30 09:34:03;;;;;;;17.00;15.20;;;21.60;79.70;;;;;;5051972;28;20025;-58
2023/09/30 09:36:45;;;;;;;19.02;15.77;;;21.60;79.80;;;;;;5051809;28;20085;-59
2023/09/30 09:39:15;;;;;;;20.60;16.10;;;21.60;79.60;;;;;;5052175;28;20097;-59
2023/09/30 09:41:54;;;;;;;19.08;16.65;;;21.60;79.90;;;;;;5051949;28;20029;-59
2023/09/30 09:44:21;;;;;;;19.67;17.58;;;21.70;79.60;;;;;;5051952;28;20448;-59
2023/09/30 09:46:48;;;;;;;19.98;17.52;;;21.60;79.80;;;;;;5052001;28;20116;-59
2023/09/30 09:49:16;;;;;;;21.40;18.17;;;21.70;80.10;;;;;;5051559;28;20056;-59
2023/09/30 09:51:45;;;;;;;22.77;18.42;;;21.70;80.20;;;;;;5051532;28;20024;-59
2023/09/30 09:54:11;;;;;;;19.85;17.73;;;21.70;80.50;;;;;;5049851;28;20036;-59
2023/09/30 09:56:39;;;;;;;21.17;18.88;;;21.70;80.70;;;;;;5049443;28;20033;-59
2023/09/30 09:59:06;;;;;;;21.58;18.33;;;21.70;80.80;;;;;;5050006;28;20064;-59
2023/09/30 10:01:33;;;;;;;22.92;17.45;;;21.70;80.90;;;;;;5049788;28;20025;-60
2023/09/30 10:04:01;;;;;;;19.77;17.67;;;21.70;81.00;;;;;;5051269;28;20035;-59
2023/09/30 10:06:27;;;;;;;17.77;15.90;;;21.70;81.30;;;;;;5051716;28;20107;-59
2023/09/30 10:08:54;;;;;;;18.60;15.98;;;21.80;81.40;;;;;;5051084;28;20021;-60
2023/09/30 10:11:20;;;;;;;21.30;17.02;;;21.80;81.30;;;;;;5051186;28;20032;-59
2023/09/30 10:13:55;;;;;;;19.75;17.02;;;21.80;81.40;;;;;;5051416;28;20021;-59
2023/09/30 10:16:36;;;;;;;22.05;17.65;;;21.80;81.60;;;;;;5051440;28;20036;-59
2023/09/30 10:19:14;;;;;;;17.80;15.88;;;21.80;81.50;;;;;;5050977;28;20021;-59
2023/09/30 10:22:12;;;;;;;19.77;17.08;;;21.80;81.70;;;;;;5051163;28;20040;-58
2023/09/30 10:24:38;;;;;;;20.75;17.30;;;21.80;81.60;;;;;;5051517;28;20044;-59
2023/09/30 10:27:22;;;;;;;17.85;16.00;;;21.80;81.10;;;;;;5051153;28;20025;-60
2023/09/30 10:29:53;;;;;;;18.73;16.65;;;21.80;80.40;;;;;;5051641;28;20025;-60
2023/09/30 10:32:18;;;;;;;18.75;16.75;;;21.80;80.60;;;;;;5051102;28;20025;-60
2023/09/30 10:34:52;;;;;;;21.40;18.60;;;21.80;81.00;;;;;;5051643;28;20123;-60
2023/09/30 10:37:24;;;;;;;22.92;19.83;;;21.80;81.40;;;;;;5051415;28;20028;-61
2023/09/30 10:39:59;;;;;;;20.02;17.50;;;21.80;82.00;;;;;;5051189;28;20036;-60
2023/09/30 10:42:51;;;;;;;22.67;17.70;;;21.80;82.30;;;;;;5051360;28;20048;-60
2023/09/30 10:45:38;;;;;;;18.50;16.55;;;21.80;82.20;;;;;;5051323;28;20441;-61
2023/09/30 10:48:26;;;;;;;21.30;19.20;;;21.80;82.40;;;;;;5051257;28;20091;-61
2023/09/30 10:51:00;;;;;;;21.45;18.83;;;21.80;82.10;;;;;;5051022;28;20083;-60
2023/09/30 10:53:30;;;;;;;20.55;18.55;;;21.90;82.40;;;;;;5051282;28;20021;-60
2023/09/30 10:55:57;;;;;;;20.90;18.67;;;21.90;82.70;;;;;;5051073;28;20021;-60
2023/09/30 10:58:48;;;;;;;23.13;19.42;;;21.90;82.80;;;;;;5051476;28;20036;-60
2023/09/30 11:01:22;;;;;;;23.13;18.25;;;22.00;82.20;;;;;;5051112;28;20419;-60
2023/09/30 11:03:51;;;;;;;21.23;18.60;;;22.00;81.80;;;;;;5051117;28;20060;-61
2023/09/30 11:06:20;;;;;;;20.42;18.17;;;22.00;81.50;;;;;;5050924;28;20373;-60
2023/09/30 11:09:00;;;;;;;21.13;18.50;;;22.00;81.00;;;;;;5050608;28;20025;-58
2023/09/30 11:11:49;;;;;;;22.77;18.75;;;22.10;80.20;;;;;;5050825;28;20029;-61
2023/09/30 11:14:26;;;;;;;23.98;18.90;;;22.10;79.90;;;;;;5050177;28;20103;-60
2023/09/30 11:16:54;;;;;;;21.45;19.13;;;22.10;79.90;;;;;;5050806;28;20340;-60
2023/09/30 11:19:21;;;;;;;22.60;19.48;;;22.10;79.40;;;;;;5050479;28;20540;-60
2023/09/30 11:22:00;;;;;;;26.45;21.67;;;22.10;79.90;;;;;;5050386;28;20132;-60
2023/09/30 11:24:28;;;;;;;23.38;19.77;;;22.10;80.50;;;;;;5049426;28;20122;-60
2023/09/30 11:26:57;;;;;;;20.15;17.30;;;22.10;80.40;;;;;;5050795;28;20033;-60
2023/09/30 11:29:23;;;;;;;22.55;18.48;;;22.20;80.10;;;;;;5050863;28;20025;-60
2023/09/30 11:31:50;;;;;;;20.02;17.55;;;22.20;79.60;;;;;;5054385;28;20025;-60
2023/09/30 11:34:17;;;;;;;22.80;18.52;;;22.20;78.70;;;;;;5054403;28;20395;-60
2023/09/30 11:36:52;;;;;;;19.52;16.98;;;22.20;78.40;;;;;;5054381;28;20021;-60
2023/09/30 11:39:28;;;;;;;20.48;17.15;;;22.20;78.30;;;;;;5054095;28;20060;-60
2023/09/30 11:41:56;;;;;;;21.30;16.35;;;22.30;78.40;;;;;;5054235;28;20029;-60
2023/09/30 11:44:23;;;;;;;18.45;15.82;;;22.30;77.80;;;;;;5053871;28;20021;-61
2023/09/30 11:47:00;;;;;;;16.92;15.05;;;22.30;77.90;;;;;;5054264;28;20029;-60
2023/09/30 11:49:29;;;;;;;16.75;14.27;;;22.30;77.60;;;;;;5053224;28;20768;-58
2023/09/30 11:52:00;;;;;;;17.73;14.15;;;22.30;77.70;;;;;;5053947;28;20094;-61
2023/09/30 11:54:29;;;;;;;16.17;14.40;;;22.30;77.90;;;;;;5053782;28;20029;-60
2023/09/30 11:56:55;;;;;;;17.80;13.45;;;22.30;78.00;;;;;;5053681;28;20036;-60
2023/09/30 11:59:22;;;;;;;14.55;12.77;;;22.30;78.00;;;;;;5053582;28;20025;-60
2023/09/30 12:01:51;;;;;;;14.93;12.80;;;22.30;78.30;;;;;;5053984;28;20029;-60
2023/09/30 12:04:20;;;;;;;15.43;13.07;;;22.30;78.80;;;;;;5053875;28;20029;-60
2023/09/30 12:06:49;;;;;;;15.63;12.98;;;22.30;78.60;;;;;;5053768;28;20036;-60
2023/09/30 12:09:21;;;;;;;15.43;13.52;;;22.30;78.70;;;;;;5053515;28;20095;-60
2023/09/30 12:11:49;;;;;;;14.38;12.68;;;22.30;78.80;;;;;;5053682;28;20033;-61
2023/09/30 12:14:15;;;;;;;15.95;14.30;;;22.30;77.90;;;;;;5053346;28;20029;-60
2023/09/30 12:16:41;;;;;;;18.25;16.23;;;22.30;78.60;;;;;;5053383;28;20072;-59
2023/09/30 12:19:08;;;;;;;15.93;14.32;;;22.30;79.10;;;;;;5053348;28;20028;-60
2023/09/30 12:21:34;;;;;;;19.50;13.88;;;22.30;79.40;;;;;;5053753;28;20083;-63
2023/09/30 12:24:01;;;;;;;15.10;13.50;;;22.30;78.70;;;;;;5053306;28;20434;-60
2023/09/30 12:26:27;;;;;;;18.23;13.82;;;22.30;77.90;;;;;;5053427;28;20024;-62
2023/09/30 12:28:52;;;;;;;16.55;12.98;;;22.30;77.10;;;;;;5053081;28;20040;-60
2023/09/30 12:31:20;;;;;;;14.75;11.50;;;22.30;76.70;;;;;;5053357;28;20090;-61